Time;durP1;ratioP1;P1;durP2;ratioP2;P2;SDS_P1;SDS_P2;PMS_P1;PMS_P2;Temp;Humidity;BMP_temperature;BMP_pressure;BME280_temperature;BME280_humidity;BME280_pressure;Samples;Min_cycle;Max_cycle;Signal;HPM_P1;HPM_P2
2022/01/02 00:00:07;;;;;;;29.57;17.90;;;10.50;89.40;;;;;;5006626;28;20197;-78
2022/01/02 00:02:38;;;;;;;27.67;17.17;;;10.50;89.50;;;;;;5003939;28;20204;-78
2022/01/02 00:05:08;;;;;;;30.00;17.40;;;10.40;89.50;;;;;;5007455;28;20193;-78
2022/01/02 00:07:42;;;;;;;23.70;15.00;;;10.30;89.40;;;;;;5007793;28;20203;-78
2022/01/02 00:10:13;;;;;;;24.63;14.97;;;10.30;89.40;;;;;;5005352;28;20254;-78
2022/01/02 00:12:50;;;;;;;22.30;14.07;;;10.20;89.40;;;;;;5002761;28;20197;-78
2022/01/02 00:15:20;;;;;;;22.77;14.03;;;10.20;89.40;;;;;;5000404;28;20184;-77
2022/01/02 00:17:53;;;;;;;25.13;12.97;;;10.10;89.40;;;;;;4998453;28;20256;-77
2022/01/02 00:20:31;;;;;;;20.60;13.37;;;10.10;90.10;;;;;;5010670;28;20197;-78
2022/01/02 00:23:00;;;;;;;20.80;12.83;;;10.10;89.50;;;;;;4996801;28;20207;-78
2022/01/02 00:25:34;;;;;;;19.27;12.40;;;10.10;89.50;;;;;;5002179;28;20193;-78
2022/01/02 00:28:02;;;;;;;18.83;11.93;;;10.10;89.50;;;;;;5003064;28;20196;-77
2022/01/02 00:30:41;;;;;;;23.73;13.03;;;10.00;89.30;;;;;;4996525;28;20188;-77
2022/01/02 00:33:11;;;;;;;19.20;12.10;;;10.00;89.20;;;;;;5003817;28;20235;-78
2022/01/02 00:35:40;;;;;;;20.57;12.53;;;10.00;89.20;;;;;;5007445;28;20793;-78
2022/01/02 00:38:20;;;;;;;18.83;11.97;;;10.00;89.20;;;;;;5003837;28;20208;-78
2022/01/02 00:40:51;;;;;;;20.60;12.57;;;9.90;89.00;;;;;;5003319;28;20823;-77
2022/01/02 00:43:26;;;;;;;19.63;11.50;;;9.80;89.00;;;;;;4995019;28;20184;-78
2022/01/02 00:45:58;;;;;;;19.87;11.63;;;9.80;89.10;;;;;;4997700;28;20200;-78
2022/01/02 00:48:30;;;;;;;25.67;12.30;;;9.80;89.30;;;;;;5001690;28;20185;-78
2022/01/02 00:51:04;;;;;;;19.03;11.30;;;9.70;89.30;;;;;;4992437;28;20281;-78
2022/01/02 00:53:35;;;;;;;17.00;10.03;;;9.70;89.40;;;;;;4991175;28;20193;-78
2022/01/02 00:56:04;;;;;;;15.43;10.10;;;9.70;89.60;;;;;;5003593;28;20192;-78
2022/01/02 00:58:38;;;;;;;14.17;9.10;;;9.60;89.70;;;;;;5003459;28;20204;-77
2022/01/02 01:01:12;;;;;;;16.40;10.10;;;9.60;89.80;;;;;;5003903;28;20219;-79
2022/01/02 01:03:43;;;;;;;15.53;9.27;;;9.60;90.00;;;;;;5006321;28;20228;-77
2022/01/02 01:06:12;;;;;;;15.83;9.03;;;9.50;90.00;;;;;;5000925;28;20193;-78
2022/01/02 01:08:41;;;;;;;17.10;8.90;;;9.50;90.00;;;;;;5001005;28;20577;-78
2022/01/02 01:11:11;;;;;;;16.57;9.17;;;9.50;90.00;;;;;;5005436;28;20858;-78
2022/01/02 01:13:39;;;;;;;13.07;8.53;;;9.50;90.10;;;;;;5008769;28;20197;-79
2022/01/02 01:16:08;;;;;;;15.10;9.40;;;9.40;90.10;;;;;;4999915;28;20199;-78
2022/01/02 01:18:36;;;;;;;15.27;9.40;;;9.40;90.10;;;;;;4999218;28;20189;-78
2022/01/02 01:21:06;;;;;;;13.70;8.60;;;9.40;90.10;;;;;;5007285;28;20232;-78
2022/01/02 01:23:34;;;;;;;15.00;8.53;;;9.40;90.00;;;;;;5006911;28;20197;-78
2022/01/02 01:26:07;;;;;;;15.60;8.73;;;9.40;90.00;;;;;;5000107;28;20266;-78
2022/01/02 01:28:35;;;;;;;15.80;9.47;;;9.40;90.10;;;;;;5001988;28;20193;-79
2022/01/02 01:31:04;;;;;;;17.87;9.23;;;9.30;90.10;;;;;;4997307;28;20200;-78
2022/01/02 01:33:32;;;;;;;16.27;8.93;;;9.30;90.50;;;;;;5001437;28;21023;-78
2022/01/02 01:36:00;;;;;;;18.43;10.03;;;9.20;90.10;;;;;;5004373;28;20201;-78
2022/01/02 01:38:31;;;;;;;18.10;9.73;;;9.20;90.10;;;;;;5005780;28;20196;-78
2022/01/02 01:41:06;;;;;;;17.13;9.33;;;9.20;90.10;;;;;;5007248;28;20509;-79
2022/01/02 01:43:40;;;;;;;18.60;9.30;;;9.20;90.10;;;;;;4998657;28;20192;-77
2022/01/02 01:46:08;;;;;;;18.90;11.13;;;9.20;90.10;;;;;;5008017;28;20209;-78
2022/01/02 01:48:37;;;;;;;17.70;9.47;;;9.20;90.10;;;;;;5003278;28;20201;-78
2022/01/02 01:51:05;;;;;;;18.10;9.67;;;9.10;90.10;;;;;;5001687;28;20200;-78
2022/01/02 01:53:35;;;;;;;16.53;9.10;;;9.20;90.20;;;;;;5001852;28;20200;-77
2022/01/02 01:56:03;;;;;;;17.17;10.07;;;9.10;90.20;;;;;;5003628;28;20655;-78
2022/01/02 01:58:31;;;;;;;17.10;9.80;;;9.10;90.20;;;;;;5004248;28;20193;-79
2022/01/02 02:01:01;;;;;;;17.60;9.43;;;9.10;90.20;;;;;;5000735;28;20193;-78
2022/01/02 02:03:30;;;;;;;18.97;9.67;;;9.00;90.10;;;;;;5006895;28;20196;-78
2022/01/02 02:05:58;;;;;;;16.17;10.00;;;9.00;90.20;;;;;;4998726;28;20228;-77
2022/01/02 02:08:27;;;;;;;16.97;9.53;;;9.00;90.20;;;;;;4993630;28;20208;-78
2022/01/02 02:10:58;;;;;;;20.00;10.70;;;8.90;90.20;;;;;;5004463;28;20211;-78
2022/01/02 02:13:27;;;;;;;19.10;10.60;;;8.90;90.20;;;;;;4986277;28;20205;-79
2022/01/02 02:15:57;;;;;;;16.63;10.37;;;8.90;90.30;;;;;;5003934;28;20195;-78
2022/01/02 02:18:25;;;;;;;18.17;9.17;;;8.80;90.30;;;;;;5013353;28;20189;-77
2022/01/02 02:20:55;;;;;;;21.33;10.40;;;8.80;90.40;;;;;;5002855;28;20204;-76
2022/01/02 02:23:23;;;;;;;20.17;10.73;;;8.70;90.40;;;;;;4996666;28;20225;-76
2022/01/02 02:25:52;;;;;;;17.40;10.10;;;8.70;90.50;;;;;;4996879;28;20196;-76
2022/01/02 02:28:25;;;;;;;19.40;10.23;;;8.70;90.50;;;;;;5002014;28;20203;-76
2022/01/02 02:30:55;;;;;;;19.27;11.13;;;8.60;90.50;;;;;;5003195;28;20205;-76
2022/01/02 02:33:24;;;;;;;19.47;10.57;;;8.60;90.50;;;;;;4995073;28;20240;-76
2022/01/02 02:35:55;;;;;;;19.57;10.43;;;8.60;90.50;;;;;;5002776;28;20214;-76
2022/01/02 02:38:23;;;;;;;23.23;11.47;;;8.60;90.50;;;;;;4999052;28;20204;-76
2022/01/02 02:40:51;;;;;;;21.13;10.10;;;8.70;90.50;;;;;;4998481;28;20207;-76
2022/01/02 02:43:29;;;;;;;19.87;10.77;;;8.60;90.50;;;;;;5004886;28;20226;-78
2022/01/02 02:49:03;;;;;;;22.10;11.17;;;8.60;90.40;;;;;;5004914;28;20559;-76
2022/01/02 02:51:48;;;;;;;20.50;10.37;;;8.60;90.40;;;;;;4993030;28;20204;-76
2022/01/02 02:54:22;;;;;;;16.90;9.97;;;8.60;90.50;;;;;;5000085;28;20188;-76
2022/01/02 02:56:58;;;;;;;18.63;10.70;;;8.60;90.50;;;;;;5002576;28;20191;-77
2022/01/02 02:59:29;;;;;;;21.53;11.70;;;8.60;90.50;;;;;;4998179;28;20199;-76
2022/01/02 03:01:59;;;;;;;21.13;11.53;;;8.60;90.40;;;;;;4998382;28;20533;-76
2022/01/02 03:04:27;;;;;;;22.07;11.30;;;8.60;90.40;;;;;;4999991;28;20199;-76
2022/01/02 03:06:57;;;;;;;18.90;10.77;;;8.60;90.40;;;;;;4998500;28;20219;-77
2022/01/02 03:09:37;;;;;;;17.90;10.73;;;8.60;90.40;;;;;;4994647;28;20201;-77
2022/01/02 03:12:06;;;;;;;20.23;11.03;;;8.60;90.40;;;;;;5001661;28;20192;-77
2022/01/02 03:14:35;;;;;;;22.87;11.03;;;8.60;90.40;;;;;;4994923;28;20216;-76
2022/01/02 03:17:04;;;;;;;23.10;10.63;;;8.60;90.40;;;;;;5002513;28;20189;-77
2022/01/02 03:19:32;;;;;;;21.50;10.70;;;8.60;90.40;;;;;;4996318;28;20573;-77
2022/01/02 03:22:02;;;;;;;19.17;10.27;;;8.60;90.40;;;;;;4994421;28;20207;-77
2022/01/02 03:24:30;;;;;;;17.60;10.50;;;8.70;90.30;;;;;;4990655;28;20198;-77
2022/01/02 03:26:59;;;;;;;18.43;10.50;;;8.60;90.30;;;;;;4987083;28;20209;-77
2022/01/02 03:29:27;;;;;;;19.50;10.20;;;8.60;90.20;;;;;;4997298;28;20200;-76
2022/01/02 03:31:56;;;;;;;22.37;11.03;;;8.70;90.10;;;;;;4998164;28;20286;-77
2022/01/02 03:34:24;;;;;;;21.43;11.20;;;8.60;90.10;;;;;;4984831;28;20229;-76
2022/01/02 03:36:52;;;;;;;18.13;10.63;;;8.70;90.10;;;;;;4995542;28;20197;-76
2022/01/02 03:39:22;;;;;;;21.97;12.43;;;8.70;90.00;;;;;;4992595;28;20235;-77
2022/01/02 03:41:50;;;;;;;20.87;10.83;;;8.60;89.70;;;;;;4995224;28;20211;-77
2022/01/02 03:44:19;;;;;;;19.47;9.93;;;8.60;89.50;;;;;;4994785;28;20994;-77
2022/01/02 03:46:47;;;;;;;23.47;11.13;;;8.60;89.40;;;;;;5002099;28;20203;-77
2022/01/02 03:49:15;;;;;;;24.53;11.83;;;8.60;89.60;;;;;;5002432;28;20250;-76
2022/01/02 03:51:44;;;;;;;19.00;9.90;;;8.60;89.70;;;;;;5001618;28;20197;-77
2022/01/02 03:54:12;;;;;;;19.23;10.67;;;8.60;89.70;;;;;;4992692;28;20197;-75
2022/01/02 03:56:42;;;;;;;20.43;11.00;;;8.70;89.40;;;;;;5004606;28;20206;-76
2022/01/02 03:59:11;;;;;;;21.27;11.87;;;8.60;89.30;;;;;;4993858;28;20208;-76
2022/01/02 04:01:39;;;;;;;20.80;11.87;;;8.70;89.10;;;;;;4999708;28;20192;-76
2022/01/02 04:04:08;;;;;;;20.43;11.23;;;8.70;89.10;;;;;;4999641;28;20232;-76
2022/01/02 04:06:36;;;;;;;20.47;11.17;;;8.60;89.10;;;;;;4989483;28;20200;-77
2022/01/02 04:09:05;;;;;;;22.97;11.33;;;8.60;89.10;;;;;;5002170;28;20214;-78
2022/01/02 04:11:33;;;;;;;19.27;10.90;;;8.60;88.90;;;;;;4993336;28;20782;-76
2022/01/02 04:14:03;;;;;;;21.30;10.83;;;8.60;88.80;;;;;;5000568;28;20207;-76
2022/01/02 04:16:31;;;;;;;20.07;11.10;;;8.70;88.90;;;;;;4995266;28;20190;-76
2022/01/02 04:19:00;;;;;;;19.93;11.80;;;8.60;88.80;;;;;;4990333;28;20203;-76
2022/01/02 04:21:28;;;;;;;20.47;11.40;;;8.60;88.70;;;;;;4997738;28;20199;-76
2022/01/02 04:23:56;;;;;;;19.40;11.03;;;8.60;88.60;;;;;;4991181;28;20250;-76
2022/01/02 04:26:25;;;;;;;21.00;11.10;;;8.60;88.60;;;;;;4996400;28;20197;-76
2022/01/02 04:28:53;;;;;;;17.20;10.20;;;8.60;88.50;;;;;;5002872;28;20802;-76
2022/01/02 04:31:23;;;;;;;22.30;11.07;;;8.60;88.40;;;;;;4992817;28;20701;-76
2022/01/02 04:33:51;;;;;;;20.13;11.00;;;8.60;88.20;;;;;;4988808;28;20232;-76
2022/01/02 04:36:20;;;;;;;22.37;10.47;;;8.60;88.20;;;;;;5005638;28;20314;-76
2022/01/02 04:38:48;;;;;;;22.57;10.77;;;8.60;87.90;;;;;;4997921;28;20200;-75
2022/01/02 04:41:16;;;;;;;19.73;10.90;;;8.60;88.00;;;;;;4996584;28;20199;-76
2022/01/02 04:43:45;;;;;;;21.77;11.17;;;8.60;88.00;;;;;;4998361;28;20251;-76
2022/01/02 04:46:14;;;;;;;19.33;10.97;;;8.60;88.00;;;;;;4991345;28;20201;-77
2022/01/02 04:48:44;;;;;;;17.73;10.63;;;8.60;87.90;;;;;;4998477;28;20207;-76
2022/01/02 04:51:12;;;;;;;28.37;11.30;;;8.50;87.70;;;;;;4992454;28;20201;-76
2022/01/02 04:53:47;;;;;;;19.07;10.83;;;8.60;87.60;;;;;;5004847;28;20195;-76
2022/01/02 04:56:16;;;;;;;20.80;10.97;;;8.50;87.60;;;;;;5002725;28;20200;-76
2022/01/02 04:58:44;;;;;;;18.23;10.70;;;8.50;87.60;;;;;;4992186;28;20197;-77
2022/01/02 05:01:14;;;;;;;18.17;10.80;;;8.50;87.60;;;;;;5000388;28;20295;-77
2022/01/02 05:03:45;;;;;;;20.93;11.07;;;8.50;87.30;;;;;;4995065;28;20224;-76
2022/01/02 05:06:13;;;;;;;18.73;9.97;;;8.50;87.30;;;;;;4984919;28;20192;-76
2022/01/02 05:08:43;;;;;;;19.87;10.57;;;8.50;87.50;;;;;;4996590;28;20965;-76
2022/01/02 05:11:13;;;;;;;17.87;9.80;;;8.50;87.40;;;;;;4999618;28;20197;-76
2022/01/02 05:13:41;;;;;;;19.57;10.50;;;8.50;87.60;;;;;;4992493;28;20200;-76
2022/01/02 05:16:10;;;;;;;20.43;10.53;;;8.50;87.50;;;;;;5000787;28;20290;-76
2022/01/02 05:18:39;;;;;;;21.83;11.43;;;8.50;87.50;;;;;;5001474;28;20276;-76
2022/01/02 05:21:08;;;;;;;16.27;9.73;;;8.50;87.50;;;;;;4993387;28;20196;-76
2022/01/02 05:23:37;;;;;;;20.53;10.43;;;8.40;87.50;;;;;;4995183;28;20229;-76
2022/01/02 05:26:06;;;;;;;19.00;10.57;;;8.40;87.50;;;;;;5000572;28;20215;-76
2022/01/02 05:28:34;;;;;;;16.80;9.77;;;8.50;87.50;;;;;;4999194;28;20192;-77
2022/01/02 05:31:03;;;;;;;19.33;10.97;;;8.50;87.50;;;;;;4999152;28;20201;-77
2022/01/02 05:33:31;;;;;;;19.80;11.23;;;8.40;87.30;;;;;;5002082;28;20282;-76
2022/01/02 05:36:00;;;;;;;22.27;11.87;;;8.40;87.30;;;;;;4993552;28;20204;-76
2022/01/02 05:38:29;;;;;;;23.93;12.57;;;8.40;87.20;;;;;;4993848;28;20200;-76
2022/01/02 05:40:58;;;;;;;23.73;13.27;;;8.40;87.30;;;;;;4998829;28;20200;-76
2022/01/02 05:43:27;;;;;;;22.13;13.13;;;8.50;87.50;;;;;;5007120;28;20222;-76
2022/01/02 05:45:56;;;;;;;21.03;11.87;;;8.50;87.50;;;;;;5004374;28;20839;-77
2022/01/02 05:48:25;;;;;;;26.60;12.20;;;8.50;87.40;;;;;;5005628;28;20188;-77
2022/01/02 05:50:54;;;;;;;24.07;12.80;;;8.50;87.00;;;;;;4999131;28;20196;-76
2022/01/02 05:53:22;;;;;;;27.83;14.17;;;8.40;86.90;;;;;;4998415;28;20259;-76
2022/01/02 05:55:52;;;;;;;23.63;13.60;;;8.50;87.10;;;;;;4997802;28;20195;-76
2022/01/02 05:58:20;;;;;;;26.73;13.30;;;8.50;87.00;;;;;;5000371;28;20878;-75
2022/01/02 06:00:49;;;;;;;29.07;14.00;;;8.50;87.10;;;;;;4995059;28;20192;-76
2022/01/02 06:03:17;;;;;;;26.47;12.57;;;8.40;87.10;;;;;;5002007;28;20292;-76
2022/01/02 06:05:46;;;;;;;30.10;13.87;;;8.50;87.10;;;;;;5005775;28;20314;-76
2022/01/02 06:08:14;;;;;;;27.30;12.43;;;8.50;87.20;;;;;;4999097;28;20613;-77
2022/01/02 06:10:43;;;;;;;25.17;13.07;;;8.50;87.10;;;;;;5001219;28;20192;-76
2022/01/02 06:13:13;;;;;;;26.00;13.77;;;8.50;87.20;;;;;;4989573;28;20203;-76
2022/01/02 06:15:41;;;;;;;25.90;12.90;;;8.50;87.20;;;;;;4989871;28;20232;-76
2022/01/02 06:18:10;;;;;;;24.27;12.77;;;8.50;87.30;;;;;;5002289;28;20556;-76
2022/01/02 06:20:38;;;;;;;22.63;12.27;;;8.60;87.40;;;;;;4988871;28;20195;-76
2022/01/02 06:23:06;;;;;;;24.87;12.30;;;8.60;87.50;;;;;;4995579;28;20262;-76
2022/01/02 06:25:35;;;;;;;26.27;13.23;;;8.60;87.50;;;;;;4997404;28;20283;-76
2022/01/02 06:28:04;;;;;;;26.83;13.77;;;8.60;87.60;;;;;;4996310;28;20201;-76
2022/01/02 06:30:34;;;;;;;28.53;14.57;;;8.70;87.70;;;;;;4992155;28;20198;-76
2022/01/02 06:33:03;;;;;;;26.50;13.83;;;8.70;88.10;;;;;;4993555;28;20188;-76
2022/01/02 06:35:34;;;;;;;23.73;13.50;;;8.80;89.70;;;;;;4996085;28;20200;-76
2022/01/02 06:38:11;;;;;;;21.00;12.13;;;8.80;89.90;;;;;;4992607;28;20200;-76
2022/01/02 06:40:39;;;;;;;25.67;13.83;;;8.90;90.00;;;;;;4990445;28;20444;-76
2022/01/02 06:43:08;;;;;;;21.83;11.40;;;9.00;90.30;;;;;;4987577;28;20231;-76
2022/01/02 06:45:38;;;;;;;21.70;11.43;;;9.00;90.90;;;;;;4990217;28;20224;-75
2022/01/02 06:48:06;;;;;;;20.00;10.40;;;9.00;90.80;;;;;;4996258;28;20201;-76
2022/01/02 06:50:35;;;;;;;19.13;10.73;;;9.10;91.10;;;;;;4996012;28;20194;-77
2022/01/02 06:53:04;;;;;;;20.63;11.97;;;9.20;91.20;;;;;;4998194;28;20196;-77
2022/01/02 06:55:32;;;;;;;21.77;12.10;;;9.20;91.20;;;;;;4994115;28;20192;-76
2022/01/02 06:58:00;;;;;;;17.97;10.03;;;9.30;91.30;;;;;;4994311;28;20185;-77
2022/01/02 07:00:29;;;;;;;19.83;10.93;;;9.40;91.40;;;;;;5004398;28;20188;-77
2022/01/02 07:02:59;;;;;;;19.90;10.23;;;9.40;91.40;;;;;;4998814;28;20203;-77
2022/01/02 07:05:27;;;;;;;19.70;10.43;;;9.50;91.60;;;;;;4997158;28;20268;-76
2022/01/02 07:07:56;;;;;;;15.63;9.27;;;9.50;91.60;;;;;;4994369;28;20193;-76
2022/01/02 07:10:24;;;;;;;16.90;9.80;;;9.60;91.70;;;;;;4988276;28;20197;-76
2022/01/02 07:12:52;;;;;;;15.87;8.83;;;9.70;91.60;;;;;;4996618;28;20185;-76
2022/01/02 07:15:21;;;;;;;13.20;7.67;;;9.70;91.50;;;;;;4997225;28;20200;-76
2022/01/02 07:17:50;;;;;;;11.77;7.57;;;9.80;91.50;;;;;;4998945;28;20255;-76
2022/01/02 07:20:19;;;;;;;14.50;8.00;;;9.80;91.40;;;;;;5001587;28;20549;-76
2022/01/02 07:22:49;;;;;;;12.07;7.07;;;9.90;91.30;;;;;;4997213;28;20268;-77
2022/01/02 07:25:17;;;;;;;12.97;7.00;;;10.00;91.20;;;;;;4991752;28;20628;-77
2022/01/02 07:27:45;;;;;;;13.57;7.70;;;10.10;91.10;;;;;;5002761;28;20201;-77
2022/01/02 07:30:14;;;;;;;14.30;8.30;;;10.20;91.00;;;;;;5001246;28;20236;-77
2022/01/02 07:32:47;;;;;;;14.20;8.37;;;10.20;91.00;;;;;;5015271;28;20180;-78
2022/01/02 07:35:15;;;;;;;13.80;8.70;;;10.30;90.90;;;;;;5012671;28;20189;-77
2022/01/02 07:37:45;;;;;;;16.77;8.80;;;10.40;90.90;;;;;;4997162;28;20200;-78
2022/01/02 07:40:13;;;;;;;14.03;8.47;;;10.40;90.80;;;;;;5001985;28;20560;-77
2022/01/02 07:42:42;;;;;;;12.90;7.77;;;10.50;90.70;;;;;;5004263;28;20209;-78
2022/01/02 07:45:10;;;;;;;12.77;7.85;;;10.60;90.60;;;;;;5001607;28;20461;-77
2022/01/02 07:47:40;;;;;;;11.17;7.13;;;10.70;90.60;;;;;;4997263;28;20574;-76
2022/01/02 07:50:09;;;;;;;12.90;7.10;;;10.70;90.30;;;;;;5004980;28;20200;-78
2022/01/02 07:52:38;;;;;;;10.60;6.43;;;10.80;90.20;;;;;;5002926;28;20734;-79
2022/01/02 07:55:08;;;;;;;13.90;7.10;;;10.90;90.20;;;;;;4989014;28;20193;-78
2022/01/02 07:57:37;;;;;;;11.50;7.33;;;11.00;90.10;;;;;;4999386;28;20211;-78
2022/01/02 08:00:06;;;;;;;11.50;6.93;;;11.00;89.30;;;;;;4992034;28;20208;-78
2022/01/02 08:02:36;;;;;;;12.47;7.70;;;11.10;88.90;;;;;;4999019;28;20177;-78
2022/01/02 08:05:06;;;;;;;11.77;7.57;;;11.20;89.30;;;;;;5001645;28;20268;-77
2022/01/02 08:07:37;;;;;;;11.97;7.63;;;11.20;89.00;;;;;;5007620;28;20220;-78
2022/01/02 08:10:09;;;;;;;11.33;7.30;;;11.30;89.00;;;;;;5002098;28;20187;-79
2022/01/02 08:12:37;;;;;;;14.23;7.70;;;11.40;88.70;;;;;;4991466;28;20197;-79
2022/01/02 08:15:06;;;;;;;12.50;7.17;;;11.50;88.70;;;;;;4988657;28;20200;-78
2022/01/02 08:17:35;;;;;;;11.83;6.97;;;11.60;88.40;;;;;;4989579;28;20197;-78
2022/01/02 08:20:04;;;;;;;12.07;6.87;;;11.60;88.10;;;;;;4994206;28;20189;-79
2022/01/02 08:22:32;;;;;;;12.57;7.00;;;11.70;88.20;;;;;;4992564;28;20205;-79
2022/01/02 08:25:00;;;;;;;13.10;8.18;;;11.80;88.10;;;;;;4992219;28;20475;-78
2022/01/02 08:27:30;;;;;;;10.90;7.10;;;11.80;88.00;;;;;;4998836;28;20860;-79
2022/01/02 08:30:00;;;;;;;10.40;7.03;;;11.80;87.50;;;;;;4995980;28;20200;-78
2022/01/02 08:32:28;;;;;;;11.60;6.53;;;11.90;87.50;;;;;;4990903;28;20235;-79
2022/01/02 08:34:56;;;;;;;11.33;6.17;;;11.90;87.10;;;;;;4990431;28;20589;-78
2022/01/02 08:37:25;;;;;;;11.40;6.60;;;12.00;87.00;;;;;;4995712;28;20287;-78
2022/01/02 08:39:53;;;;;;;11.40;6.90;;;12.00;86.70;;;;;;4988483;28;20281;-77
2022/01/02 08:42:21;;;;;;;13.13;8.07;;;12.00;86.60;;;;;;4997548;28;20199;-78
2022/01/02 08:44:51;;;;;;;11.97;6.97;;;12.10;86.40;;;;;;4996601;28;20196;-79
2022/01/02 08:47:19;;;;;;;10.40;7.47;;;12.10;86.10;;;;;;4999703;28;20288;-79
2022/01/02 08:49:48;;;;;;;10.23;6.70;;;12.10;85.50;;;;;;4990908;28;20200;-79
2022/01/02 08:52:16;;;;;;;12.37;7.13;;;12.10;84.90;;;;;;4994044;28;20196;-79
2022/01/02 08:54:44;;;;;;;12.10;7.77;;;12.20;85.10;;;;;;4988406;28;20203;-78
2022/01/02 08:57:12;;;;;;;13.17;7.90;;;12.20;84.70;;;;;;5002468;28;20195;-78
2022/01/02 08:59:41;;;;;;;13.47;8.37;;;12.20;84.70;;;;;;4996080;28;20255;-79
2022/01/02 09:02:10;;;;;;;11.30;7.13;;;12.20;85.00;;;;;;4997501;28;20250;-78
2022/01/02 09:04:39;;;;;;;12.67;7.50;;;12.30;84.80;;;;;;5002181;28;20193;-79
2022/01/02 09:07:12;;;;;;;13.20;8.10;;;12.30;84.10;;;;;;5003845;28;20331;-78
2022/01/02 09:09:41;;;;;;;14.23;7.75;;;12.30;84.10;;;;;;5005778;28;20436;-77
2022/01/02 09:12:12;;;;;;;12.03;6.93;;;12.40;84.50;;;;;;4996366;28;20207;-77
2022/01/02 09:14:40;;;;;;;10.37;6.57;;;12.40;84.00;;;;;;5002248;28;20192;-78
2022/01/02 09:17:10;;;;;;;11.63;5.80;;;12.50;84.30;;;;;;4995318;28;20196;-79
2022/01/02 09:19:38;;;;;;;10.03;6.13;;;12.50;83.80;;;;;;5004582;28;20200;-78
2022/01/02 09:22:07;;;;;;;8.97;6.03;;;12.50;83.80;;;;;;4998646;28;20211;-78
2022/01/02 09:24:35;;;;;;;10.20;5.97;;;12.60;83.70;;;;;;4997136;28;20260;-79
2022/01/02 09:27:04;;;;;;;10.37;6.27;;;12.60;83.70;;;;;;4999848;28;20220;-78
2022/01/02 09:29:32;;;;;;;9.17;6.07;;;12.70;83.80;;;;;;4997064;28;20259;-79
2022/01/02 09:32:02;;;;;;;11.10;5.80;;;12.70;83.70;;;;;;5008051;28;20204;-78
2022/01/02 09:34:31;;;;;;;12.07;6.80;;;12.80;83.70;;;;;;5001539;28;20208;-78
2022/01/02 09:37:01;;;;;;;9.77;6.10;;;12.80;83.60;;;;;;4990638;28;20839;-79
2022/01/02 09:39:29;;;;;;;10.80;6.87;;;12.80;83.60;;;;;;5004540;28;20204;-79
2022/01/02 09:42:05;;;;;;;13.97;7.27;;;12.80;83.20;;;;;;4999586;28;20195;-77
2022/01/02 09:44:34;;;;;;;11.83;6.50;;;12.80;82.80;;;;;;4993997;28;20687;-78
2022/01/02 09:47:02;;;;;;;12.37;6.57;;;12.80;81.80;;;;;;4991737;28;20248;-77
2022/01/02 09:49:34;;;;;;;10.00;6.47;;;12.80;81.20;;;;;;5006032;28;20207;-77
2022/01/02 09:52:02;;;;;;;10.53;6.67;;;12.90;81.80;;;;;;5006611;28;20307;-79
2022/01/02 09:54:33;;;;;;;12.53;7.30;;;12.90;81.80;;;;;;4995251;28;20204;-78
2022/01/02 09:57:02;;;;;;;12.70;7.90;;;13.00;82.10;;;;;;5002349;28;20555;-78
2022/01/02 09:59:31;;;;;;;15.23;8.90;;;13.00;82.30;;;;;;4997103;28;20208;-78
2022/01/02 10:02:01;;;;;;;45.50;19.33;;;13.10;82.30;;;;;;4991075;28;20185;-78
2022/01/02 10:04:37;;;;;;;16.77;10.30;;;13.10;82.30;;;;;;4992390;28;20619;-79
2022/01/02 10:07:06;;;;;;;16.93;8.73;;;13.10;82.10;;;;;;4994472;28;20216;-79
2022/01/02 10:09:36;;;;;;;14.63;9.27;;;13.10;81.90;;;;;;4997555;28;20197;-76
2022/01/02 10:12:28;;;;;;;16.33;9.03;;;13.10;81.70;;;;;;4990205;28;20189;-77
2022/01/02 10:15:17;;;;;;;14.13;8.00;;;13.00;81.30;;;;;;4990631;28;20675;-76
2022/01/02 10:17:59;;;;;;;13.90;8.47;;;13.00;81.30;;;;;;4988858;28;20199;-76
2022/01/02 10:20:32;;;;;;;17.03;8.13;;;13.00;81.60;;;;;;4989134;28;20201;-76
2022/01/02 10:23:05;;;;;;;15.03;9.00;;;13.00;81.90;;;;;;4993126;28;20188;-76
2022/01/02 10:25:38;;;;;;;22.30;8.17;;;13.10;81.70;;;;;;4989526;28;20198;-77
2022/01/02 10:28:36;;;;;;;13.97;8.37;;;13.10;81.60;;;;;;4992332;28;20196;-77
2022/01/02 10:31:15;;;;;;;12.57;7.53;;;13.10;81.60;;;;;;4994509;28;20613;-76
2022/01/02 10:33:51;;;;;;;17.27;9.37;;;13.10;81.20;;;;;;4990768;28;20690;-77
2022/01/02 10:36:29;;;;;;;13.73;7.73;;;13.10;81.00;;;;;;4991174;28;20192;-76
2022/01/02 10:39:02;;;;;;;14.97;8.27;;;13.10;81.20;;;;;;5000097;28;20733;-76
2022/01/02 10:41:33;;;;;;;15.33;8.53;;;13.10;81.00;;;;;;4992591;28;20199;-76
2022/01/02 10:44:22;;;;;;;16.63;8.83;;;13.20;80.70;;;;;;4996006;28;20185;-76
2022/01/02 10:47:07;;;;;;;14.70;8.20;;;13.20;80.90;;;;;;4987787;28;20211;-76
2022/01/02 10:49:53;;;;;;;13.07;7.97;;;13.20;80.60;;;;;;4990841;28;20260;-76
2022/01/02 10:52:27;;;;;;;14.23;7.73;;;13.20;81.00;;;;;;4999632;28;20247;-75
2022/01/02 10:54:56;;;;;;;14.03;6.60;;;13.30;80.80;;;;;;4997852;28;20203;-75
2022/01/02 10:57:28;;;;;;;11.53;6.33;;;13.30;80.50;;;;;;4998299;28;20192;-75
2022/01/02 10:59:58;;;;;;;11.83;6.67;;;13.30;79.70;;;;;;4991582;28;20574;-77
2022/01/02 11:02:28;;;;;;;10.93;6.17;;;13.40;79.40;;;;;;4991980;28;20188;-77
2022/01/02 11:05:00;;;;;;;10.07;6.73;;;13.30;79.10;;;;;;4994450;28;20188;-78
2022/01/02 11:07:38;;;;;;;12.32;7.35;;;13.40;79.60;;;;;;4987165;28;20487;-78
2022/01/02 11:10:07;;;;;;;11.70;6.13;;;13.40;79.60;;;;;;4993178;28;20189;-78
2022/01/02 11:12:38;;;;;;;9.60;5.80;;;13.40;79.30;;;;;;4995412;28;20192;-79
2022/01/02 11:15:09;;;;;;;9.83;5.90;;;13.40;78.40;;;;;;4992572;28;20189;-78
2022/01/02 11:17:38;;;;;;;9.83;5.70;;;13.40;78.10;;;;;;4984688;28;20189;-79
2022/01/02 11:20:10;;;;;;;9.53;5.77;;;13.40;78.10;;;;;;4987541;28;20192;-80
2022/01/02 11:22:45;;;;;;;12.47;6.47;;;13.40;78.40;;;;;;4996243;28;20669;-78
2022/01/02 11:25:21;;;;;;;9.30;5.83;;;13.50;79.60;;;;;;4985400;28;20185;-78
2022/01/02 11:27:53;;;;;;;11.47;6.57;;;13.50;78.90;;;;;;4984305;28;20209;-78
2022/01/02 11:30:38;;;;;;;11.73;6.63;;;13.50;79.00;;;;;;4984913;28;20188;-78
2022/01/02 11:33:09;;;;;;;10.67;6.40;;;13.50;78.90;;;;;;4988057;28;20232;-78
2022/01/02 11:35:39;;;;;;;12.90;6.70;;;13.60;78.70;;;;;;4987763;28;20612;-78
2022/01/02 11:38:09;;;;;;;12.03;6.73;;;13.60;78.90;;;;;;4997764;28;20205;-79
2022/01/02 11:40:46;;;;;;;11.30;6.20;;;13.70;78.90;;;;;;4994417;28;20201;-78
2022/01/02 11:43:54;;;;;;;12.53;6.63;;;13.70;78.90;;;;;;4987121;28;20189;-79
2022/01/02 11:46:26;;;;;;;14.77;6.20;;;13.70;79.10;;;;;;4991367;28;20186;-80
2022/01/02 11:49:15;;;;;;;12.67;6.50;;;13.70;78.80;;;;;;4990765;28;20192;-79
2022/01/02 11:52:07;;;;;;;11.70;6.73;;;13.80;79.20;;;;;;4984438;28;20191;-77
2022/01/02 11:54:49;;;;;;;10.80;6.30;;;13.80;78.90;;;;;;4997270;28;20204;-79
2022/01/02 11:57:48;;;;;;;9.83;5.60;;;13.80;78.90;;;;;;5000999;28;20549;-77
2022/01/02 12:00:41;;;;;;;10.13;5.90;;;13.80;78.30;;;;;;4957705;28;20196;-78
2022/01/02 12:03:47;;;;;;;9.63;5.43;;;13.90;78.30;;;;;;5003668;28;20196;-78
2022/01/02 12:06:24;;;;;;;13.07;6.20;;;13.90;78.20;;;;;;5002077;28;20180;-78
2022/01/02 12:08:54;;;;;;;12.67;6.63;;;13.90;78.00;;;;;;5001332;28;20188;-77
2022/01/02 12:11:45;;;;;;;10.13;5.50;;;13.90;78.20;;;;;;5003171;28;20196;-78
2022/01/02 12:14:22;;;;;;;12.20;6.53;;;13.90;78.20;;;;;;5000722;28;20185;-77
2022/01/02 12:16:58;;;;;;;11.70;6.50;;;13.90;77.70;;;;;;4991319;28;20185;-77
2022/01/02 12:19:27;;;;;;;9.07;5.10;;;13.90;77.70;;;;;;4984599;28;20288;-78
2022/01/02 12:22:11;;;;;;;11.53;6.67;;;13.80;77.00;;;;;;4990794;28;20196;-78
2022/01/02 12:24:40;;;;;;;12.43;7.00;;;13.90;77.10;;;;;;4993037;28;20255;-77
2022/01/02 12:27:12;;;;;;;14.67;7.57;;;13.90;77.30;;;;;;4994093;28;20224;-77
2022/01/02 12:29:40;;;;;;;15.43;8.33;;;13.90;77.40;;;;;;5003242;28;20181;-77
2022/01/02 12:32:10;;;;;;;13.93;7.40;;;13.90;77.50;;;;;;4989393;28;20197;-77
2022/01/02 12:34:40;;;;;;;16.13;8.93;;;13.90;77.80;;;;;;4987035;28;20225;-77
2022/01/02 12:37:08;;;;;;;15.40;8.67;;;13.90;77.90;;;;;;4991277;28;20223;-77
2022/01/02 12:39:40;;;;;;;17.70;10.00;;;13.90;78.00;;;;;;4997130;28;20188;-76
2022/01/02 12:42:14;;;;;;;17.43;8.87;;;13.90;77.90;;;;;;4993832;28;20211;-77
2022/01/02 12:44:44;;;;;;;20.20;10.80;;;13.90;78.10;;;;;;4998230;28;20184;-77
2022/01/02 12:47:24;;;;;;;15.13;9.00;;;13.90;78.00;;;;;;4993240;28;20212;-77
2022/01/02 12:49:57;;;;;;;36.40;19.37;;;13.90;78.00;;;;;;4993067;28;20304;-77
2022/01/02 12:52:26;;;;;;;60.67;31.83;;;13.90;77.90;;;;;;4994007;28;20184;-78
2022/01/02 12:54:54;;;;;;;27.93;16.53;;;13.90;78.20;;;;;;4992468;28;20196;-79
2022/01/02 12:57:24;;;;;;;16.33;8.03;;;13.90;78.10;;;;;;4986196;28;20193;-78
2022/01/02 12:59:57;;;;;;;16.70;8.53;;;13.90;78.20;;;;;;4980715;28;20204;-78